sensor_id;sensor_type;location;lat;lon;timestamp;pressure;altitude;pressure_sealevel;temperature;humidity
11648;BME280;5880;52.342;9.662;2023-03-18T00:00:17;100228.63;;;16.58;40.40
11648;BME280;5880;52.342;9.662;2023-03-18T00:02:44;100220.34;;;16.53;40.35
11648;BME280;5880;52.342;9.662;2023-03-18T00:05:11;100219.28;;;16.49;40.59
11648;BME280;5880;52.342;9.662;2023-03-18T00:07:38;100212.41;;;16.41;40.56
11648;BME280;5880;52.342;9.662;2023-03-18T00:10:06;100208.59;;;16.37;41.00
11648;BME280;5880;52.342;9.662;2023-03-18T00:12:32;100213.81;;;16.33;41.17
11648;BME280;5880;52.342;9.662;2023-03-18T00:14:59;100206.94;;;16.31;41.10
11648;BME280;5880;52.342;9.662;2023-03-18T00:17:25;100212.47;;;16.25;41.24
11648;BME280;5880;52.342;9.662;2023-03-18T00:19:51;100207.78;;;16.21;41.13
11648;BME280;5880;52.342;9.662;2023-03-18T00:22:16;100211.38;;;16.16;41.38
11648;BME280;5880;52.342;9.662;2023-03-18T00:24:43;100204.22;;;16.10;41.59
11648;BME280;5880;52.342;9.662;2023-03-18T00:27:08;100213.31;;;16.06;41.72
11648;BME280;5880;52.342;9.662;2023-03-18T00:29:34;100209.78;;;16.00;41.78
11648;BME280;5880;52.342;9.662;2023-03-18T00:32:00;100218.59;;;15.97;41.78
11648;BME280;5880;52.342;9.662;2023-03-18T00:34:25;100212.25;;;15.91;41.78
11648;BME280;5880;52.342;9.662;2023-03-18T00:36:52;100207.03;;;15.85;42.04
11648;BME280;5880;52.342;9.662;2023-03-18T00:39:25;100233.50;;;15.86;42.19
11648;BME280;5880;52.342;9.662;2023-03-18T00:41:53;100228.25;;;15.84;42.10
11648;BME280;5880;52.342;9.662;2023-03-18T00:44:19;100224.94;;;15.82;42.10
11648;BME280;5880;52.342;9.662;2023-03-18T00:46:45;100230.44;;;15.82;42.07
11648;BME280;5880;52.342;9.662;2023-03-18T00:49:10;100234.88;;;15.83;42.25
11648;BME280;5880;52.342;9.662;2023-03-18T00:51:37;100238.19;;;15.85;42.35
11648;BME280;5880;52.342;9.662;2023-03-18T00:54:08;100243.13;;;15.88;42.25
11648;BME280;5880;52.342;9.662;2023-03-18T00:56:36;100251.97;;;15.90;42.12
11648;BME280;5880;52.342;9.662;2023-03-18T00:59:06;100250.03;;;15.91;42.36
11648;BME280;5880;52.342;9.662;2023-03-18T01:01:34;100256.63;;;15.95;42.36
11648;BME280;5880;52.342;9.662;2023-03-18T01:04:00;100254.94;;;15.99;42.40
11648;BME280;5880;52.342;9.662;2023-03-18T01:06:28;100259.13;;;16.01;42.47
11648;BME280;5880;52.342;9.662;2023-03-18T01:08:55;100257.72;;;16.04;42.35
11648;BME280;5880;52.342;9.662;2023-03-18T01:11:22;100258.28;;;16.06;42.51
11648;BME280;5880;52.342;9.662;2023-03-18T01:13:48;100254.16;;;16.09;42.46
11648;BME280;5880;52.342;9.662;2023-03-18T01:16:14;100251.66;;;16.07;42.41
11648;BME280;5880;52.342;9.662;2023-03-18T01:18:41;100250.56;;;16.13;42.46
11648;BME280;5880;52.342;9.662;2023-03-18T01:21:08;100245.03;;;16.13;42.35
11648;BME280;5880;52.342;9.662;2023-03-18T01:23:35;100243.91;;;16.14;42.39
11648;BME280;5880;52.342;9.662;2023-03-18T01:26:02;100240.34;;;16.14;42.39
11648;BME280;5880;52.342;9.662;2023-03-18T01:28:28;100245.84;;;16.14;42.41
11648;BME280;5880;52.342;9.662;2023-03-18T01:30:55;100251.06;;;16.15;42.44
11648;BME280;5880;52.342;9.662;2023-03-18T01:33:25;100262.66;;;16.17;42.53
11648;BME280;5880;52.342;9.662;2023-03-18T01:35:58;100255.22;;;16.18;42.50
11648;BME280;5880;52.342;9.662;2023-03-18T01:38:27;100265.41;;;16.17;42.39
11648;BME280;5880;52.342;9.662;2023-03-18T01:40:58;100253.56;;;16.17;42.87
11648;BME280;5880;52.342;9.662;2023-03-18T01:43:28;100258.00;;;16.18;42.62
11648;BME280;5880;52.342;9.662;2023-03-18T01:45:58;100253.28;;;16.18;42.55
11648;BME280;5880;52.342;9.662;2023-03-18T01:48:28;100264.59;;;16.17;42.67
11648;BME280;5880;52.342;9.662;2023-03-18T01:51:00;100264.03;;;16.15;42.90
11648;BME280;5880;52.342;9.662;2023-03-18T01:53:34;100248.63;;;16.14;42.91
11648;BME280;5880;52.342;9.662;2023-03-18T01:56:02;100252.47;;;16.08;42.84
11648;BME280;5880;52.342;9.662;2023-03-18T01:58:34;100252.78;;;16.06;43.04
11648;BME280;5880;52.342;9.662;2023-03-18T02:01:17;100255.78;;;16.04;43.16
11648;BME280;5880;52.342;9.662;2023-03-18T02:03:45;100248.63;;;15.98;43.52
11648;BME280;5880;52.342;9.662;2023-03-18T02:06:11;100241.75;;;15.96;43.55
11648;BME280;5880;52.342;9.662;2023-03-18T02:08:38;100248.06;;;15.96;43.85
11648;BME280;5880;52.342;9.662;2023-03-18T02:11:06;100248.06;;;15.96;43.85
11648;BME280;5880;52.342;9.662;2023-03-18T02:13:40;100247.81;;;15.98;43.99
11648;BME280;5880;52.342;9.662;2023-03-18T02:16:17;100244.22;;;15.97;43.95
11648;BME280;5880;52.342;9.662;2023-03-18T02:18:51;100254.44;;;15.97;44.17
11648;BME280;5880;52.342;9.662;2023-03-18T02:21:32;100246.44;;;15.95;44.18
11648;BME280;5880;52.342;9.662;2023-03-18T02:24:23;100245.88;;;15.93;44.43
11648;BME280;5880;52.342;9.662;2023-03-18T02:27:11;100244.78;;;15.89;44.30
11648;BME280;5880;52.342;9.662;2023-03-18T02:29:39;100252.50;;;15.87;44.36
11648;BME280;5880;52.342;9.662;2023-03-18T02:32:07;100245.34;;;15.86;44.37
11648;BME280;5880;52.342;9.662;2023-03-18T02:34:36;100239.00;;;15.86;44.82
11648;BME280;5880;52.342;9.662;2023-03-18T02:37:02;100242.03;;;15.84;44.83
11648;BME280;5880;52.342;9.662;2023-03-18T02:39:28;100243.13;;;15.83;44.96
11648;BME280;5880;52.342;9.662;2023-03-18T02:41:56;100241.78;;;15.80;45.10
11648;BME280;5880;52.342;9.662;2023-03-18T02:44:22;100248.63;;;15.78;45.09
11648;BME280;5880;52.342;9.662;2023-03-18T02:47:13;100261.03;;;15.75;45.15
11648;BME280;5880;52.342;9.662;2023-03-18T02:49:41;100256.09;;;15.72;45.38
11648;BME280;5880;52.342;9.662;2023-03-18T02:52:07;100262.13;;;15.69;45.43
11648;BME280;5880;52.342;9.662;2023-03-18T02:54:33;100270.91;;;15.66;45.68
11648;BME280;5880;52.342;9.662;2023-03-18T02:56:59;100269.53;;;15.63;45.86
11648;BME280;5880;52.342;9.662;2023-03-18T02:59:25;100264.31;;;15.57;46.03
11648;BME280;5880;52.342;9.662;2023-03-18T03:01:53;100265.97;;;15.58;46.17
11648;BME280;5880;52.342;9.662;2023-03-18T03:04:22;100276.16;;;15.57;46.29
11648;BME280;5880;52.342;9.662;2023-03-18T03:06:48;100280.00;;;15.56;46.19
11648;BME280;5880;52.342;9.662;2023-03-18T03:09:16;100271.75;;;15.51;46.52
11648;BME280;5880;52.342;9.662;2023-03-18T03:11:45;100276.44;;;15.56;46.73
11648;BME280;5880;52.342;9.662;2023-03-18T03:14:11;100277.81;;;15.53;46.41
11648;BME280;5880;52.342;9.662;2023-03-18T03:16:37;100271.19;;;15.49;46.88
11648;BME280;5880;52.342;9.662;2023-03-18T03:19:05;100285.50;;;15.51;46.70
11648;BME280;5880;52.342;9.662;2023-03-18T03:21:32;100294.59;;;15.52;46.69
11648;BME280;5880;52.342;9.662;2023-03-18T03:23:58;100286.63;;;15.50;46.80
11648;BME280;5880;52.342;9.662;2023-03-18T03:26:24;100301.47;;;15.49;46.72
11648;BME280;5880;52.342;9.662;2023-03-18T03:28:50;100293.78;;;15.46;46.69
11648;BME280;5880;52.342;9.662;2023-03-18T03:31:16;100291.56;;;15.43;46.78
11648;BME280;5880;52.342;9.662;2023-03-18T03:33:43;100292.38;;;15.44;47.23
11648;BME280;5880;52.342;9.662;2023-03-18T03:36:12;100290.72;;;15.43;47.07
11648;BME280;5880;52.342;9.662;2023-03-18T03:38:38;100281.94;;;15.40;47.18
11648;BME280;5880;52.342;9.662;2023-03-18T03:41:06;100286.03;;;15.38;47.23
11648;BME280;5880;52.342;9.662;2023-03-18T03:43:39;100291.00;;;15.36;47.30
11648;BME280;5880;52.342;9.662;2023-03-18T03:46:06;100284.66;;;15.35;47.39
11648;BME280;5880;52.342;9.662;2023-03-18T03:48:33;100281.06;;;15.30;47.38
11648;BME280;5880;52.342;9.662;2023-03-18T03:50:58;100277.50;;;15.29;47.57
11648;BME280;5880;52.342;9.662;2023-03-18T03:53:25;100284.66;;;15.30;47.85
11648;BME280;5880;52.342;9.662;2023-03-18T03:55:52;100290.72;;;15.32;47.71
11648;BME280;5880;52.342;9.662;2023-03-18T03:58:17;100297.59;;;15.30;47.88
11648;BME280;5880;52.342;9.662;2023-03-18T04:00:43;100299.78;;;15.28;47.79
11648;BME280;5880;52.342;9.662;2023-03-18T04:03:09;100292.06;;;15.25;47.95
11648;BME280;5880;52.342;9.662;2023-03-18T04:05:34;100301.72;;;15.27;48.00
11648;BME280;5880;52.342;9.662;2023-03-18T04:08:02;100296.47;;;15.26;48.00
11648;BME280;5880;52.342;9.662;2023-03-18T04:10:28;100303.09;;;15.25;48.41
11648;BME280;5880;52.342;9.662;2023-03-18T04:12:54;100303.09;;;15.25;48.26
11648;BME280;5880;52.342;9.662;2023-03-18T04:15:20;100295.66;;;15.25;48.26
11648;BME280;5880;52.342;9.662;2023-03-18T04:17:48;100296.75;;;15.24;48.41
11648;BME280;5880;52.342;9.662;2023-03-18T04:20:15;100304.16;;;15.24;48.55
11648;BME280;5880;52.342;9.662;2023-03-18T04:22:42;100306.09;;;15.23;48.68
11648;BME280;5880;52.342;9.662;2023-03-18T04:25:10;100300.34;;;15.25;48.60
11648;BME280;5880;52.342;9.662;2023-03-18T04:27:37;100304.72;;;15.26;48.75
11648;BME280;5880;52.342;9.662;2023-03-18T04:30:05;100307.47;;;15.26;48.73
11648;BME280;5880;52.342;9.662;2023-03-18T04:32:32;100316.56;;;15.26;48.69
11648;BME280;5880;52.342;9.662;2023-03-18T04:34:58;100314.38;;;15.23;nan
11648;BME280;5880;52.342;9.662;2023-03-18T04:37:24;100317.69;;;15.25;48.92
11648;BME280;5880;52.342;9.662;2023-03-18T04:39:50;100313.81;;;15.26;48.82
11648;BME280;5880;52.342;9.662;2023-03-18T04:42:16;100307.78;;;15.24;48.77
11648;BME280;5880;52.342;9.662;2023-03-18T04:44:42;100315.19;;;15.24;48.93
11648;BME280;5880;52.342;9.662;2023-03-18T04:47:08;100315.19;;;15.24;48.91
11648;BME280;5880;52.342;9.662;2023-03-18T04:49:34;100307.22;;;15.22;48.80
11648;BME280;5880;52.342;9.662;2023-03-18T04:52:00;100314.63;;;15.22;48.86
11648;BME280;5880;52.342;9.662;2023-03-18T04:54:26;100307.72;;;15.19;48.82
11648;BME280;5880;52.342;9.662;2023-03-18T04:56:52;100308.84;;;15.18;48.69
11648;BME280;5880;52.342;9.662;2023-03-18T04:59:18;100311.03;;;15.16;48.88
11648;BME280;5880;52.342;9.662;2023-03-18T05:01:44;100298.34;;;15.05;48.75
11648;BME280;5880;52.342;9.662;2023-03-18T05:04:10;100304.97;;;15.09;48.65
11648;BME280;5880;52.342;9.662;2023-03-18T05:06:36;100309.34;;;15.05;48.69
11648;BME280;5880;52.342;9.662;2023-03-18T05:09:03;100307.13;;;15.02;48.72
11648;BME280;5880;52.342;9.662;2023-03-18T05:11:33;100301.63;;;14.96;48.63
11648;BME280;5880;52.342;9.662;2023-03-18T05:13:59;100296.91;;;14.92;48.53
11648;BME280;5880;52.342;9.662;2023-03-18T05:16:25;100299.38;;;14.88;48.71
11648;BME280;5880;52.342;9.662;2023-03-18T05:18:51;100307.34;;;14.85;48.81
11648;BME280;5880;52.342;9.662;2023-03-18T05:21:17;100308.16;;;14.80;48.84
11648;BME280;5880;52.342;9.662;2023-03-18T05:23:43;100318.03;;;14.76;49.09
11648;BME280;5880;52.342;9.662;2023-03-18T05:26:09;100316.34;;;14.70;49.16
11648;BME280;5880;52.342;9.662;2023-03-18T05:28:36;100318.53;;;14.68;49.38
11648;BME280;5880;52.342;9.662;2023-03-18T05:31:02;100318.78;;;14.61;49.33
11648;BME280;5880;52.342;9.662;2023-03-18T05:33:28;100317.44;;;14.64;49.42
11648;BME280;5880;52.342;9.662;2023-03-18T05:35:54;100316.28;;;14.60;49.43
11648;BME280;5880;52.342;9.662;2023-03-18T05:38:20;100325.94;;;14.62;49.50
11648;BME280;5880;52.342;9.662;2023-03-18T05:40:45;100321.78;;;14.60;49.29
11648;BME280;5880;52.342;9.662;2023-03-18T05:43:11;100325.91;;;14.57;49.21
11648;BME280;5880;52.342;9.662;2023-03-18T05:45:37;100328.41;;;14.59;49.38
11648;BME280;5880;52.342;9.662;2023-03-18T05:48:04;100315.09;;;14.50;49.43
11648;BME280;5880;52.342;9.662;2023-03-18T05:50:37;100324.53;;;14.54;49.42
11648;BME280;5880;52.342;9.662;2023-03-18T05:53:05;100324.19;;;14.51;49.43
11648;BME280;5880;52.342;9.662;2023-03-18T05:55:32;100331.03;;;14.48;49.56
11648;BME280;5880;52.342;9.662;2023-03-18T05:57:58;100328.84;;;14.45;49.50
11648;BME280;5880;52.342;9.662;2023-03-18T06:00:26;100335.41;;;14.44;49.55
11648;BME280;5880;52.342;9.662;2023-03-18T06:02:53;100334.88;;;14.42;49.63
11648;BME280;5880;52.342;9.662;2023-03-18T06:05:21;100332.94;;;14.43;49.75
11648;BME280;5880;52.342;9.662;2023-03-18T06:07:47;100334.00;;;14.42;49.95
11648;BME280;5880;52.342;9.662;2023-03-18T06:10:14;100340.91;;;14.44;49.96
11648;BME280;5880;52.342;9.662;2023-03-18T06:12:40;100342.56;;;14.45;49.97
11648;BME280;5880;52.342;9.662;2023-03-18T06:15:08;100340.41;;;14.47;50.24
11648;BME280;5880;52.342;9.662;2023-03-18T06:17:35;100345.03;;;14.47;50.25
11648;BME280;5880;52.342;9.662;2023-03-18T06:20:02;100346.19;;;14.51;50.23
11648;BME280;5880;52.342;9.662;2023-03-18T06:22:28;100330.47;;;14.46;50.32
11648;BME280;5880;52.342;9.662;2023-03-18T06:24:56;100331.84;;;14.49;50.31
11648;BME280;5880;52.342;9.662;2023-03-18T06:27:22;100335.75;;;14.53;50.56
11648;BME280;5880;52.342;9.662;2023-03-18T06:29:48;100331.41;;;14.57;50.63
11648;BME280;5880;52.342;9.662;2023-03-18T06:32:14;100345.72;;;14.59;50.66
11648;BME280;5880;52.342;9.662;2023-03-18T06:34:40;100346.81;;;14.63;50.56
11648;BME280;5880;52.342;9.662;2023-03-18T06:37:06;100341.63;;;14.67;50.75
11648;BME280;5880;52.342;9.662;2023-03-18T06:39:32;100346.34;;;14.71;50.85
11648;BME280;5880;52.342;9.662;2023-03-18T06:41:59;100347.97;;;14.72;51.13
11648;BME280;5880;52.342;9.662;2023-03-18T06:44:25;100364.03;;;14.86;51.14
11648;BME280;5880;52.342;9.662;2023-03-18T06:46:51;100363.78;;;14.92;51.19
11648;BME280;5880;52.342;9.662;2023-03-18T06:49:18;100360.78;;;14.99;51.25
11648;BME280;5880;52.342;9.662;2023-03-18T06:51:44;100361.91;;;15.03;51.50
11648;BME280;5880;52.342;9.662;2023-03-18T06:54:10;100372.69;;;15.15;51.38
11648;BME280;5880;52.342;9.662;2023-03-18T06:56:37;100377.69;;;15.23;51.18
11648;BME280;5880;52.342;9.662;2023-03-18T06:59:05;100377.97;;;15.27;51.03
11648;BME280;5880;52.342;9.662;2023-03-18T07:01:32;100371.09;;;15.29;50.91
11648;BME280;5880;52.342;9.662;2023-03-18T07:03:59;100383.50;;;15.32;50.76
11648;BME280;5880;52.342;9.662;2023-03-18T07:06:26;100385.44;;;15.36;50.90
11648;BME280;5880;52.342;9.662;2023-03-18T07:08:51;100387.09;;;15.37;50.88
11648;BME280;5880;52.342;9.662;2023-03-18T07:11:18;100383.50;;;15.37;51.39
11648;BME280;5880;52.342;9.662;2023-03-18T07:13:43;100396.50;;;15.52;51.85
11648;BME280;5880;52.342;9.662;2023-03-18T07:16:09;100392.44;;;15.70;52.60
11648;BME280;5880;52.342;9.662;2023-03-18T07:18:35;100395.81;;;15.97;53.26
11648;BME280;5880;52.342;9.662;2023-03-18T07:21:03;100399.69;;;16.22;52.70
11648;BME280;5880;52.342;9.662;2023-03-18T07:23:29;100414.59;;;16.41;51.98
11648;BME280;5880;52.342;9.662;2023-03-18T07:25:55;100411.81;;;16.52;51.33
11648;BME280;5880;52.342;9.662;2023-03-18T07:28:21;100421.19;;;16.56;50.77
11648;BME280;5880;52.342;9.662;2023-03-18T07:30:47;100419.25;;;16.56;50.91
11648;BME280;5880;52.342;9.662;2023-03-18T07:33:14;100425.91;;;16.55;50.79
11648;BME280;5880;52.342;9.662;2023-03-18T07:35:40;100427.00;;;16.54;50.83
11648;BME280;5880;52.342;9.662;2023-03-18T07:38:09;100432.50;;;16.54;50.76
11648;BME280;5880;52.342;9.662;2023-03-18T07:40:36;100438.28;;;16.53;50.72
11648;BME280;5880;52.342;9.662;2023-03-18T07:43:04;100429.19;;;16.47;50.97
11648;BME280;5880;52.342;9.662;2023-03-18T07:45:29;100447.13;;;16.50;50.79
11648;BME280;5880;52.342;9.662;2023-03-18T07:47:55;100443.53;;;16.49;50.94
11648;BME280;5880;52.342;9.662;2023-03-18T07:50:21;100449.34;;;16.48;50.93
11648;BME280;5880;52.342;9.662;2023-03-18T07:52:47;100448.50;;;16.47;50.91
11648;BME280;5880;52.342;9.662;2023-03-18T07:55:13;100451.53;;;16.45;50.76
11648;BME280;5880;52.342;9.662;2023-03-18T07:57:39;100446.31;;;16.44;50.66
11648;BME280;5880;52.342;9.662;2023-03-18T08:00:09;100450.72;;;16.45;50.93
11648;BME280;5880;52.342;9.662;2023-03-18T08:02:35;100453.47;;;16.40;50.87
11648;BME280;5880;52.342;9.662;2023-03-18T08:05:03;100462.31;;;16.42;51.18
11648;BME280;5880;52.342;9.662;2023-03-18T08:07:32;100456.78;;;16.47;51.55
11648;BME280;5880;52.342;9.662;2023-03-18T08:09:58;100451.28;;;16.62;52.16
11648;BME280;5880;52.342;9.662;2023-03-18T08:12:24;100463.94;;;16.94;53.06
11648;BME280;5880;52.342;9.662;2023-03-18T08:14:50;100456.69;;;17.29;53.25
11648;BME280;5880;52.342;9.662;2023-03-18T08:17:16;100465.44;;;17.57;53.25
11648;BME280;5880;52.342;9.662;2023-03-18T08:19:42;100459.53;;;17.73;52.50
11648;BME280;5880;52.342;9.662;2023-03-18T08:22:08;100477.78;;;17.85;52.00
11648;BME280;5880;52.342;9.662;2023-03-18T08:24:35;100468.63;;;17.89;51.53
11648;BME280;5880;52.342;9.662;2023-03-18T08:27:03;100464.19;;;17.88;51.37
11648;BME280;5880;52.342;9.662;2023-03-18T08:29:29;100465.00;;;17.94;51.69
11648;BME280;5880;52.342;9.662;2023-03-18T08:31:55;100472.94;;;18.06;51.50
11648;BME280;5880;52.342;9.662;2023-03-18T08:34:21;100479.00;;;18.13;51.37
11648;BME280;5880;52.342;9.662;2023-03-18T08:36:47;100483.09;;;18.21;50.85
11648;BME280;5880;52.342;9.662;2023-03-18T08:39:13;100485.84;;;18.21;50.55
11648;BME280;5880;52.342;9.662;2023-03-18T08:41:40;100478.94;;;18.18;50.45
11648;BME280;5880;52.342;9.662;2023-03-18T08:44:06;100486.72;;;18.16;50.32
11648;BME280;5880;52.342;9.662;2023-03-18T08:46:36;100487.84;;;18.15;50.45
11648;BME280;5880;52.342;9.662;2023-03-18T08:49:02;100484.53;;;18.13;50.50
11648;BME280;5880;52.342;9.662;2023-03-18T08:51:28;100489.22;;;18.12;50.49
11648;BME280;5880;52.342;9.662;2023-03-18T08:53:54;100491.44;;;18.10;50.44
11648;BME280;5880;52.342;9.662;2023-03-18T08:56:20;100490.63;;;18.10;50.42
11648;BME280;5880;52.342;9.662;2023-03-18T08:58:46;100490.91;;;18.08;50.40
11648;BME280;5880;52.342;9.662;2023-03-18T09:01:13;100481.53;;;18.04;50.52
11648;BME280;5880;52.342;9.662;2023-03-18T09:03:39;100488.16;;;18.08;50.65
11648;BME280;5880;52.342;9.662;2023-03-18T09:06:05;100494.78;;;18.07;50.69
11648;BME280;5880;52.342;9.662;2023-03-18T09:08:31;100492.00;;;18.07;50.65
11648;BME280;5880;52.342;9.662;2023-03-18T09:10:58;100497.25;;;18.09;50.60
11648;BME280;5880;52.342;9.662;2023-03-18T09:13:25;100499.19;;;18.08;50.54
11648;BME280;5880;52.342;9.662;2023-03-18T09:15:51;100489.53;;;18.06;50.57
11648;BME280;5880;52.342;9.662;2023-03-18T09:18:17;100494.25;;;18.05;50.29
11648;BME280;5880;52.342;9.662;2023-03-18T09:20:44;100498.41;;;18.03;50.41
11648;BME280;5880;52.342;9.662;2023-03-18T09:23:12;100497.56;;;18.02;50.42
11648;BME280;5880;52.342;9.662;2023-03-18T09:25:39;100502.28;;;18.02;50.57
11648;BME280;5880;52.342;9.662;2023-03-18T09:28:07;100502.81;;;18.04;50.56
11648;BME280;5880;52.342;9.662;2023-03-18T09:30:33;100503.38;;;18.06;50.71
11648;BME280;5880;52.342;9.662;2023-03-18T09:32:59;100507.78;;;18.07;50.57
11648;BME280;5880;52.342;9.662;2023-03-18T09:35:24;100506.97;;;18.06;50.61
11648;BME280;5880;52.342;9.662;2023-03-18T09:37:50;100510.25;;;18.08;50.86
11648;BME280;5880;52.342;9.662;2023-03-18T09:40:29;100501.94;;;18.13;50.77
11648;BME280;5880;52.342;9.662;2023-03-18T09:45:55;100510.63;;;18.41;51.57
11648;BME280;5880;52.342;9.662;2023-03-18T09:51:35;100508.00;;;18.94;51.65
11648;BME280;5880;52.342;9.662;2023-03-18T09:54:22;100506.69;;;19.16;51.12
11648;BME280;5880;52.342;9.662;2023-03-18T09:56:54;100511.00;;;19.27;50.62
11648;BME280;5880;52.342;9.662;2023-03-18T09:59:41;100508.47;;;19.31;49.90
11648;BME280;5880;52.342;9.662;2023-03-18T10:02:21;100510.41;;;19.30;50.02
11648;BME280;5880;52.342;9.662;2023-03-18T10:04:58;100520.84;;;19.38;50.31
11648;BME280;5880;52.342;9.662;2023-03-18T10:07:33;100510.28;;;19.70;51.42
11648;BME280;5880;52.342;9.662;2023-03-18T10:10:13;100520.59;;;20.26;52.01
11648;BME280;5880;52.342;9.662;2023-03-18T10:12:49;100526.56;;;20.90;51.36
11648;BME280;5880;52.342;9.662;2023-03-18T10:15:25;100528.75;;;21.54;50.53
11648;BME280;5880;52.342;9.662;2023-03-18T10:18:10;100522.03;;;22.24;49.87
11648;BME280;5880;52.342;9.662;2023-03-18T10:23:50;100523.47;;;22.80;47.71
11648;BME280;5880;52.342;9.662;2023-03-18T10:26:46;100529.63;;;22.91;47.43
11648;BME280;5880;52.342;9.662;2023-03-18T10:29:34;100517.91;;;23.03;46.91
11648;BME280;5880;52.342;9.662;2023-03-18T10:38:02;100528.72;;;23.67;46.15
11648;BME280;5880;52.342;9.662;2023-03-18T10:40:37;100530.97;;;23.56;45.58
11648;BME280;5880;52.342;9.662;2023-03-18T10:43:12;100528.09;;;23.30;45.30
11648;BME280;5880;52.342;9.662;2023-03-18T10:45:40;100527.75;;;23.00;45.67
11648;BME280;5880;52.342;9.662;2023-03-18T10:48:28;100529.81;;;22.72;45.71
11648;BME280;5880;52.342;9.662;2023-03-18T10:51:38;100537.44;;;22.44;45.97
11648;BME280;5880;52.342;9.662;2023-03-18T10:54:38;100536.66;;;22.16;46.13
11648;BME280;5880;52.342;9.662;2023-03-18T10:57:04;100536.28;;;21.95;46.45
11648;BME280;5880;52.342;9.662;2023-03-18T10:59:32;100540.22;;;21.80;46.27
11648;BME280;5880;52.342;9.662;2023-03-18T11:02:04;100545.78;;;21.66;46.44
11648;BME280;5880;52.342;9.662;2023-03-18T11:04:41;100545.56;;;21.48;46.25
11648;BME280;5880;52.342;9.662;2023-03-18T11:07:18;100542.53;;;21.31;46.42
11648;BME280;5880;52.342;9.662;2023-03-18T11:09:44;100542.69;;;21.21;47.02
11648;BME280;5880;52.342;9.662;2023-03-18T11:12:25;100539.72;;;21.17;47.13
11648;BME280;5880;52.342;9.662;2023-03-18T11:14:54;100540.41;;;21.09;46.61
11648;BME280;5880;52.342;9.662;2023-03-18T11:17:25;100532.78;;;21.01;46.61
11648;BME280;5880;52.342;9.662;2023-03-18T11:20:23;100549.31;;;20.92;46.71
11648;BME280;5880;52.342;9.662;2023-03-18T11:23:04;100543.13;;;20.81;46.53
11648;BME280;5880;52.342;9.662;2023-03-18T11:25:37;100552.13;;;20.73;46.71
11648;BME280;5880;52.342;9.662;2023-03-18T11:28:05;100540.78;;;20.70;47.13
11648;BME280;5880;52.342;9.662;2023-03-18T11:30:54;100545.22;;;20.71;47.34
11648;BME280;5880;52.342;9.662;2023-03-18T11:33:24;100539.44;;;20.67;47.47
11648;BME280;5880;52.342;9.662;2023-03-18T11:35:56;100548.63;;;20.68;47.48
11648;BME280;5880;52.342;9.662;2023-03-18T11:38:31;100543.06;;;20.68;47.12
11648;BME280;5880;52.342;9.662;2023-03-18T11:41:27;100552.28;;;20.63;47.32
11648;BME280;5880;52.342;9.662;2023-03-18T11:44:17;100548.16;;;20.60;47.13
11648;BME280;5880;52.342;9.662;2023-03-18T11:46:56;100557.31;;;20.61;47.64
11648;BME280;5880;52.342;9.662;2023-03-18T11:49:26;100551.44;;;20.62;47.80
11648;BME280;5880;52.342;9.662;2023-03-18T11:51:59;100557.22;;;20.66;47.57
11648;BME280;5880;52.342;9.662;2023-03-18T11:58:12;100549.63;;;20.72;47.75
11648;BME280;5880;52.342;9.662;2023-03-18T12:07:25;100543.34;;;20.66;46.98
11648;BME280;5880;52.342;9.662;2023-03-18T12:13:51;100550.53;;;20.67;47.14
11648;BME280;5880;52.342;9.662;2023-03-18T12:16:55;100548.00;;;20.71;47.10
11648;BME280;5880;52.342;9.662;2023-03-18T12:22:42;100546.03;;;20.71;47.13
11648;BME280;5880;52.342;9.662;2023-03-18T12:31:58;100546.56;;;20.73;46.87
11648;BME280;5880;52.342;9.662;2023-03-18T12:38:20;100548.44;;;20.78;47.15
11648;BME280;5880;52.342;9.662;2023-03-18T12:41:21;100550.59;;;20.81;47.09
11648;BME280;5880;52.342;9.662;2023-03-18T12:49:34;100547.97;;;20.90;46.98
11648;BME280;5880;52.342;9.662;2023-03-18T12:52:07;100553.75;;;20.93;46.76
11648;BME280;5880;52.342;9.662;2023-03-18T12:54:49;100555.91;;;20.96;46.83
11648;BME280;5880;52.342;9.662;2023-03-18T12:57:32;100551.19;;;20.97;46.56
11648;BME280;5880;52.342;9.662;2023-03-18T13:00:17;100544.50;;;20.98;46.41
11648;BME280;5880;52.342;9.662;2023-03-18T13:03:35;100532.34;;;20.94;46.46
11648;BME280;5880;52.342;9.662;2023-03-18T13:06:10;100544.50;;;20.98;46.23
11648;BME280;5880;52.342;9.662;2023-03-18T13:11:58;100538.09;;;20.97;46.05
11648;BME280;5880;52.342;9.662;2023-03-18T13:14:34;100537.59;;;20.95;46.17
11648;BME280;5880;52.342;9.662;2023-03-18T13:17:02;100539.53;;;20.95;45.89
11648;BME280;5880;52.342;9.662;2023-03-18T13:19:30;100542.66;;;20.93;45.66
11648;BME280;5880;52.342;9.662;2023-03-18T13:22:22;100539.34;;;20.91;45.73
11648;BME280;5880;52.342;9.662;2023-03-18T13:25:12;100538.81;;;20.89;45.51
11648;BME280;5880;52.342;9.662;2023-03-18T13:28:03;100545.47;;;20.88;45.64
11648;BME280;5880;52.342;9.662;2023-03-18T13:30:57;100543.03;;;20.86;45.67
11648;BME280;5880;52.342;9.662;2023-03-18T13:34:20;100532.50;;;20.83;45.91
11648;BME280;5880;52.342;9.662;2023-03-18T13:40:12;100548.50;;;20.92;45.96
11648;BME280;5880;52.342;9.662;2023-03-18T13:42:46;100546.53;;;20.92;45.98
11648;BME280;5880;52.342;9.662;2023-03-18T13:45:37;100545.09;;;20.95;45.46
11648;BME280;5880;52.342;9.662;2023-03-18T13:48:22;100541.78;;;20.93;45.59
11648;BME280;5880;52.342;9.662;2023-03-18T13:50:52;100545.41;;;20.93;45.78
11648;BME280;5880;52.342;9.662;2023-03-18T13:53:29;100543.38;;;20.99;45.42
11648;BME280;5880;52.342;9.662;2023-03-18T13:58:34;100534.03;;;21.08;45.54
11648;BME280;5880;52.342;9.662;2023-03-18T14:06:38;100530.66;;;21.25;45.17
11648;BME280;5880;52.342;9.662;2023-03-18T14:11:53;100529.75;;;21.30;44.81
11648;BME280;5880;52.342;9.662;2023-03-18T14:14:52;100520.81;;;21.33;45.01
11648;BME280;5880;52.342;9.662;2023-03-18T14:23:32;100518.22;;;21.37;44.60
11648;BME280;5880;52.342;9.662;2023-03-18T14:26:23;100513.81;;;21.36;44.84
11648;BME280;5880;52.342;9.662;2023-03-18T14:37:14;100519.56;;;21.39;44.17